sensor_id;sensor_type;location;lat;lon;timestamp;pressure;altitude;pressure_sealevel;temperature;humidity
4586;BME280;2305;50.118;8.952;2023-05-12T00:02:13;100315.03;;;14.51;100.00
4586;BME280;2305;50.118;8.952;2023-05-12T00:04:43;100314.03;;;14.52;100.00
4586;BME280;2305;50.118;8.952;2023-05-12T00:07:11;100323.38;;;14.56;100.00
4586;BME280;2305;50.118;8.952;2023-05-12T00:09:42;100318.22;;;14.54;100.00
4586;BME280;2305;50.118;8.952;2023-05-12T00:12:10;100321.03;;;14.53;100.00
4586;BME280;2305;50.118;8.952;2023-05-12T00:14:41;100320.34;;;14.51;100.00
4586;BME280;2305;50.118;8.952;2023-05-12T00:17:10;100324.66;;;14.52;100.00
4586;BME280;2305;50.118;8.952;2023-05-12T00:19:41;100318.28;;;14.45;100.00
4586;BME280;2305;50.118;8.952;2023-05-12T00:22:12;100314.28;;;14.41;100.00
4586;BME280;2305;50.118;8.952;2023-05-12T00:24:42;100320.75;;;14.29;100.00
4586;BME280;2305;50.118;8.952;2023-05-12T00:27:10;100328.31;;;14.24;100.00
4586;BME280;2305;50.118;8.952;2023-05-12T00:29:39;100331.13;;;14.22;100.00
4586;BME280;2305;50.118;8.952;2023-05-12T00:32:10;100328.50;;;14.13;100.00
4586;BME280;2305;50.118;8.952;2023-05-12T00:34:42;100339.00;;;14.05;100.00
4586;BME280;2305;50.118;8.952;2023-05-12T00:37:10;100330.06;;;14.06;100.00
4586;BME280;2305;50.118;8.952;2023-05-12T00:39:41;100333.97;;;14.02;100.00
4586;BME280;2305;50.118;8.952;2023-05-12T00:42:11;100332.56;;;14.07;100.00
4586;BME280;2305;50.118;8.952;2023-05-12T00:44:40;100335.66;;;14.03;100.00
4586;BME280;2305;50.118;8.952;2023-05-12T00:47:09;100340.97;;;14.03;100.00
4586;BME280;2305;50.118;8.952;2023-05-12T00:49:38;100335.94;;;14.00;100.00
4586;BME280;2305;50.118;8.952;2023-05-12T00:52:18;100343.78;;;13.92;100.00
4586;BME280;2305;50.118;8.952;2023-05-12T00:54:47;100342.84;;;13.83;100.00
4586;BME280;2305;50.118;8.952;2023-05-12T00:57:19;100343.94;;;13.81;100.00
4586;BME280;2305;50.118;8.952;2023-05-12T00:59:50;100344.25;;;13.78;100.00
4586;BME280;2305;50.118;8.952;2023-05-12T01:02:19;100337.97;;;13.79;100.00
4586;BME280;2305;50.118;8.952;2023-05-12T01:04:49;100340.72;;;13.87;100.00
4586;BME280;2305;50.118;8.952;2023-05-12T01:07:24;100356.94;;;13.84;100.00
4586;BME280;2305;50.118;8.952;2023-05-12T01:09:54;100351.91;;;13.81;100.00
4586;BME280;2305;50.118;8.952;2023-05-12T01:12:26;100349.25;;;13.81;100.00
4586;BME280;2305;50.118;8.952;2023-05-12T01:14:56;100345.81;;;13.71;100.00
4586;BME280;2305;50.118;8.952;2023-05-12T01:17:31;100346.25;;;13.67;100.00
4586;BME280;2305;50.118;8.952;2023-05-12T01:20:06;100345.41;;;13.66;100.00
4586;BME280;2305;50.118;8.952;2023-05-12T01:22:39;100344.16;;;13.70;100.00
4586;BME280;2305;50.118;8.952;2023-05-12T01:25:11;100347.47;;;13.72;100.00
4586;BME280;2305;50.118;8.952;2023-05-12T01:27:44;100344.16;;;13.70;100.00
4586;BME280;2305;50.118;8.952;2023-05-12T01:30:16;100346.13;;;13.68;100.00
4586;BME280;2305;50.118;8.952;2023-05-12T01:32:45;100347.47;;;13.72;100.00
4586;BME280;2305;50.118;8.952;2023-05-12T01:35:14;100348.88;;;13.76;100.00
4586;BME280;2305;50.118;8.952;2023-05-12T01:38:03;100350.22;;;13.80;100.00
4586;BME280;2305;50.118;8.952;2023-05-12T01:40:39;100352.44;;;13.84;100.00
4586;BME280;2305;50.118;8.952;2023-05-12T01:43:13;100349.66;;;13.86;100.00
4586;BME280;2305;50.118;8.952;2023-05-12T01:45:43;100351.31;;;13.87;100.00
4586;BME280;2305;50.118;8.952;2023-05-12T01:48:12;100352.72;;;13.91;100.00
4586;BME280;2305;50.118;8.952;2023-05-12T01:50:43;100349.22;;;13.90;100.00
4586;BME280;2305;50.118;8.952;2023-05-12T01:53:17;100350.06;;;13.91;100.00
4586;BME280;2305;50.118;8.952;2023-05-12T01:55:45;100349.94;;;13.92;100.00
4586;BME280;2305;50.118;8.952;2023-05-12T01:58:18;100352.41;;;13.94;100.00
4586;BME280;2305;50.118;8.952;2023-05-12T02:00:49;100354.06;;;13.95;100.00
4586;BME280;2305;50.118;8.952;2023-05-12T02:03:19;100362.75;;;13.97;100.00
4586;BME280;2305;50.118;8.952;2023-05-12T02:05:47;100356.59;;;13.96;100.00
4586;BME280;2305;50.118;8.952;2023-05-12T02:08:17;100358.44;;;13.96;100.00
4586;BME280;2305;50.118;8.952;2023-05-12T02:10:46;100362.03;;;13.95;100.00
4586;BME280;2305;50.118;8.952;2023-05-12T02:13:14;100354.94;;;13.95;100.00
4586;BME280;2305;50.118;8.952;2023-05-12T02:15:45;100358.44;;;13.96;100.00
4586;BME280;2305;50.118;8.952;2023-05-12T02:18:13;100362.03;;;13.95;100.00
4586;BME280;2305;50.118;8.952;2023-05-12T02:20:44;100362.19;;;13.93;100.00
4586;BME280;2305;50.118;8.952;2023-05-12T02:23:13;100364.00;;;13.93;100.00
4586;BME280;2305;50.118;8.952;2023-05-12T02:25:42;100365.13;;;13.90;100.00
4586;BME280;2305;50.118;8.952;2023-05-12T02:28:12;100364.44;;;13.88;100.00
4586;BME280;2305;50.118;8.952;2023-05-12T02:30:45;100366.41;;;13.86;100.00
4586;BME280;2305;50.118;8.952;2023-05-12T02:33:14;100370.59;;;13.89;100.00
4586;BME280;2305;50.118;8.952;2023-05-12T02:35:45;100371.41;;;13.89;100.00
4586;BME280;2305;50.118;8.952;2023-05-12T02:38:15;100361.78;;;13.88;100.00
4586;BME280;2305;50.118;8.952;2023-05-12T02:40:46;100370.59;;;13.89;100.00
4586;BME280;2305;50.118;8.952;2023-05-12T02:43:15;100363.75;;;13.86;100.00
4586;BME280;2305;50.118;8.952;2023-05-12T02:45:46;100366.53;;;13.85;100.00
4586;BME280;2305;50.118;8.952;2023-05-12T02:48:14;100365.56;;;13.86;100.00
4586;BME280;2305;50.118;8.952;2023-05-12T02:50:44;100368.50;;;13.83;100.00
4586;BME280;2305;50.118;8.952;2023-05-12T02:53:12;100365.13;;;13.81;100.00
4586;BME280;2305;50.118;8.952;2023-05-12T02:55:42;100366.44;;;13.77;100.00
4586;BME280;2305;50.118;8.952;2023-05-12T02:58:14;100367.13;;;13.69;100.00
4586;BME280;2305;50.118;8.952;2023-05-12T03:00:42;100366.03;;;13.63;100.00
4586;BME280;2305;50.118;8.952;2023-05-12T03:03:37;100372.75;;;13.57;100.00
4586;BME280;2305;50.118;8.952;2023-05-12T03:06:07;100366.75;;;13.55;100.00
4586;BME280;2305;50.118;8.952;2023-05-12T03:08:38;100378.47;;;13.53;100.00
4586;BME280;2305;50.118;8.952;2023-05-12T03:11:11;100369.53;;;13.54;100.00
4586;BME280;2305;50.118;8.952;2023-05-12T03:13:41;100365.78;;;13.56;100.00
4586;BME280;2305;50.118;8.952;2023-05-12T03:16:09;100367.16;;;13.60;100.00
4586;BME280;2305;50.118;8.952;2023-05-12T03:18:39;100368.84;;;13.61;100.00
4586;BME280;2305;50.118;8.952;2023-05-12T03:21:10;100365.34;;;13.61;100.00
4586;BME280;2305;50.118;8.952;2023-05-12T03:23:39;100366.19;;;13.61;100.00
4586;BME280;2305;50.118;8.952;2023-05-12T03:26:07;100364.22;;;13.63;100.00
4586;BME280;2305;50.118;8.952;2023-05-12T03:28:39;100356.44;;;13.62;100.00
4586;BME280;2305;50.118;8.952;2023-05-12T03:31:09;100357.41;;;13.61;100.00
4586;BME280;2305;50.118;8.952;2023-05-12T03:33:38;100363.69;;;13.60;100.00
4586;BME280;2305;50.118;8.952;2023-05-12T03:36:09;100363.69;;;13.60;100.00
4586;BME280;2305;50.118;8.952;2023-05-12T03:38:38;100369.66;;;13.62;100.00
4586;BME280;2305;50.118;8.952;2023-05-12T03:41:06;100367.88;;;13.62;100.00
4586;BME280;2305;50.118;8.952;2023-05-12T03:43:39;100373.97;;;13.63;100.00
4586;BME280;2305;50.118;8.952;2023-05-12T03:46:08;100374.97;;;13.62;100.00
4586;BME280;2305;50.118;8.952;2023-05-12T03:48:36;100368.84;;;13.61;100.00
4586;BME280;2305;50.118;8.952;2023-05-12T03:51:07;100360.06;;;13.61;100.00
4586;BME280;2305;50.118;8.952;2023-05-12T03:53:36;100361.72;;;13.62;100.00
4586;BME280;2305;50.118;8.952;2023-05-12T03:56:07;100366.19;;;13.61;100.00
4586;BME280;2305;50.118;8.952;2023-05-12T03:58:39;100367.00;;;13.62;100.00
4586;BME280;2305;50.118;8.952;2023-05-12T04:01:07;100364.09;;;13.65;100.00
4586;BME280;2305;50.118;8.952;2023-05-12T04:03:36;100364.09;;;13.65;100.00
4586;BME280;2305;50.118;8.952;2023-05-12T04:06:08;100363.94;;;13.66;100.00
4586;BME280;2305;50.118;8.952;2023-05-12T04:08:37;100364.78;;;13.67;100.00
4586;BME280;2305;50.118;8.952;2023-05-12T04:11:07;100365.47;;;13.68;100.00
4586;BME280;2305;50.118;8.952;2023-05-12T04:13:37;100368.66;;;13.72;100.00
4586;BME280;2305;50.118;8.952;2023-05-12T04:16:07;100374.63;;;13.74;100.00
4586;BME280;2305;50.118;8.952;2023-05-12T04:18:35;100377.28;;;13.74;100.00
4586;BME280;2305;50.118;8.952;2023-05-12T04:21:08;100383.84;;;13.79;100.00
4586;BME280;2305;50.118;8.952;2023-05-12T04:23:36;100384.84;;;13.78;100.00
4586;BME280;2305;50.118;8.952;2023-05-12T04:26:07;100382.88;;;13.80;100.00
4586;BME280;2305;50.118;8.952;2023-05-12T04:28:36;100382.00;;;13.80;100.00
4586;BME280;2305;50.118;8.952;2023-05-12T04:31:04;100385.50;;;13.80;100.00
4586;BME280;2305;50.118;8.952;2023-05-12T04:33:33;100386.19;;;13.82;100.00
4586;BME280;2305;50.118;8.952;2023-05-12T04:36:04;100383.41;;;13.84;100.00
4586;BME280;2305;50.118;8.952;2023-05-12T04:38:35;100392.03;;;13.86;100.00
4586;BME280;2305;50.118;8.952;2023-05-12T04:41:05;100391.06;;;13.87;100.00
4586;BME280;2305;50.118;8.952;2023-05-12T04:43:35;100397.19;;;13.87;100.00
4586;BME280;2305;50.118;8.952;2023-05-12T04:46:09;100402.38;;;13.89;100.00
4586;BME280;2305;50.118;8.952;2023-05-12T04:48:38;100405.97;;;13.88;100.00
4586;BME280;2305;50.118;8.952;2023-05-12T04:51:08;100409.34;;;13.90;100.00
4586;BME280;2305;50.118;8.952;2023-05-12T04:53:38;100410.00;;;13.92;100.00
4586;BME280;2305;50.118;8.952;2023-05-12T04:56:14;100414.31;;;13.93;100.00
4586;BME280;2305;50.118;8.952;2023-05-12T04:58:46;100414.88;;;13.96;100.00
4586;BME280;2305;50.118;8.952;2023-05-12T05:01:16;100420.03;;;13.98;100.00
4586;BME280;2305;50.118;8.952;2023-05-12T05:03:46;100419.19;;;13.97;100.00
4586;BME280;2305;50.118;8.952;2023-05-12T05:06:14;100430.50;;;13.99;100.00
4586;BME280;2305;50.118;8.952;2023-05-12T05:08:44;100429.34;;;14.02;100.00
4586;BME280;2305;50.118;8.952;2023-05-12T05:11:16;100425.88;;;14.01;100.00
4586;BME280;2305;50.118;8.952;2023-05-12T05:13:47;100425.03;;;14.01;100.00
4586;BME280;2305;50.118;8.952;2023-05-12T05:16:18;100431.03;;;14.03;100.00
4586;BME280;2305;50.118;8.952;2023-05-12T05:18:49;100430.19;;;14.02;100.00
4586;BME280;2305;50.118;8.952;2023-05-12T05:21:17;100428.41;;;14.03;100.00
4586;BME280;2305;50.118;8.952;2023-05-12T05:23:50;100431.72;;;14.05;100.00
4586;BME280;2305;50.118;8.952;2023-05-12T05:26:21;100435.38;;;14.04;100.00
4586;BME280;2305;50.118;8.952;2023-05-12T05:28:52;100440.50;;;14.05;100.00
4586;BME280;2305;50.118;8.952;2023-05-12T05:31:52;100433.81;;;14.11;100.00
4586;BME280;2305;50.118;8.952;2023-05-12T05:34:20;100437.00;;;14.14;100.00
4586;BME280;2305;50.118;8.952;2023-05-12T05:36:52;100443.81;;;14.17;100.00
4586;BME280;2305;50.118;8.952;2023-05-12T05:39:22;100447.88;;;14.21;100.00
4586;BME280;2305;50.118;8.952;2023-05-12T05:41:51;100439.06;;;14.20;100.00
4586;BME280;2305;50.118;8.952;2023-05-12T05:44:20;100447.44;;;14.25;100.00
4586;BME280;2305;50.118;8.952;2023-05-12T05:46:51;100442.69;;;14.29;100.00
4586;BME280;2305;50.118;8.952;2023-05-12T05:49:20;100435.94;;;14.34;100.00
4586;BME280;2305;50.118;8.952;2023-05-12T05:51:48;100442.78;;;14.37;100.00
4586;BME280;2305;50.118;8.952;2023-05-12T05:54:17;100441.53;;;14.41;100.00
4586;BME280;2305;50.118;8.952;2023-05-12T05:56:47;100447.38;;;14.44;100.00
4586;BME280;2305;50.118;8.952;2023-05-12T05:59:18;100441.50;;;14.50;100.00
4586;BME280;2305;50.118;8.952;2023-05-12T06:01:46;100446.03;;;14.58;100.00
4586;BME280;2305;50.118;8.952;2023-05-12T06:04:19;100460.25;;;14.66;100.00
4586;BME280;2305;50.118;8.952;2023-05-12T06:06:49;100455.69;;;14.76;100.00
4586;BME280;2305;50.118;8.952;2023-05-12T06:09:20;100456.34;;;14.88;100.00
4586;BME280;2305;50.118;8.952;2023-05-12T06:11:50;100463.69;;;14.94;100.00
4586;BME280;2305;50.118;8.952;2023-05-12T06:14:19;100456.81;;;15.01;100.00
4586;BME280;2305;50.118;8.952;2023-05-12T06:16:47;100457.66;;;15.01;100.00
4586;BME280;2305;50.118;8.952;2023-05-12T06:19:16;100465.03;;;15.07;100.00
4586;BME280;2305;50.118;8.952;2023-05-12T06:21:44;100454.50;;;15.15;100.00
4586;BME280;2305;50.118;8.952;2023-05-12T06:24:16;100467.38;;;15.28;100.00
4586;BME280;2305;50.118;8.952;2023-05-12T06:26:45;100465.38;;;15.39;100.00
4586;BME280;2305;50.118;8.952;2023-05-12T06:29:18;100470.22;;;15.44;100.00
4586;BME280;2305;50.118;8.952;2023-05-12T06:31:49;100461.56;;;15.42;100.00
4586;BME280;2305;50.118;8.952;2023-05-12T06:34:17;100463.69;;;15.38;100.00
4586;BME280;2305;50.118;8.952;2023-05-12T06:36:45;100458.72;;;15.35;100.00
4586;BME280;2305;50.118;8.952;2023-05-12T06:39:15;100461.66;;;15.32;100.00
4586;BME280;2305;50.118;8.952;2023-05-12T06:41:43;100458.59;;;15.27;100.00
4586;BME280;2305;50.118;8.952;2023-05-12T06:44:20;100460.03;;;15.22;100.00
4586;BME280;2305;50.118;8.952;2023-05-12T06:46:50;100470.63;;;15.22;100.00
4586;BME280;2305;50.118;8.952;2023-05-12T06:49:19;100469.97;;;15.20;100.00
4586;BME280;2305;50.118;8.952;2023-05-12T06:51:49;100471.22;;;15.16;100.00
4586;BME280;2305;50.118;8.952;2023-05-12T06:54:17;100474.34;;;15.11;100.00
4586;BME280;2305;50.118;8.952;2023-05-12T06:56:46;100480.78;;;15.09;100.00
4586;BME280;2305;50.118;8.952;2023-05-12T06:59:15;100483.44;;;15.09;100.00
4586;BME280;2305;50.118;8.952;2023-05-12T07:01:49;100485.56;;;15.05;100.00
4586;BME280;2305;50.118;8.952;2023-05-12T07:04:21;100485.81;;;15.12;100.00
4586;BME280;2305;50.118;8.952;2023-05-12T07:06:53;100489.81;;;15.16;100.00
4586;BME280;2305;50.118;8.952;2023-05-12T07:09:22;100492.31;;;15.17;100.00
4586;BME280;2305;50.118;8.952;2023-05-12T07:11:50;100492.03;;;15.20;100.00
4586;BME280;2305;50.118;8.952;2023-05-12T07:14:22;100493.31;;;15.16;100.00
4586;BME280;2305;50.118;8.952;2023-05-12T07:16:52;100490.13;;;15.13;100.00
4586;BME280;2305;50.118;8.952;2023-05-12T07:19:20;100492.25;;;15.09;100.00
4586;BME280;2305;50.118;8.952;2023-05-12T07:21:50;100487.25;;;15.06;100.00
4586;BME280;2305;50.118;8.952;2023-05-12T07:24:18;100489.06;;;15.06;100.00
4586;BME280;2305;50.118;8.952;2023-05-12T07:26:47;100488.22;;;15.05;100.00
4586;BME280;2305;50.118;8.952;2023-05-12T07:29:16;100491.84;;;15.04;100.00
4586;BME280;2305;50.118;8.952;2023-05-12T07:31:46;100496.88;;;15.07;100.00
4586;BME280;2305;50.118;8.952;2023-05-12T07:34:19;100487.78;;;15.10;100.00
4586;BME280;2305;50.118;8.952;2023-05-12T07:36:49;100497.41;;;15.11;100.00
4586;BME280;2305;50.118;8.952;2023-05-12T07:39:20;100489.81;;;15.16;100.00
4586;BME280;2305;50.118;8.952;2023-05-12T07:41:52;100484.09;;;15.20;100.00
4586;BME280;2305;50.118;8.952;2023-05-12T07:44:26;100491.28;;;15.28;100.00
4586;BME280;2305;50.118;8.952;2023-05-12T07:46:57;100494.03;;;15.36;100.00
4586;BME280;2305;50.118;8.952;2023-05-12T07:49:30;100483.22;;;15.47;100.00
4586;BME280;2305;50.118;8.952;2023-05-12T07:52:01;100486.91;;;15.54;100.00
4586;BME280;2305;50.118;8.952;2023-05-12T07:54:30;100485.16;;;15.62;100.00
4586;BME280;2305;50.118;8.952;2023-05-12T07:56:58;100486.06;;;15.71;100.00
4586;BME280;2305;50.118;8.952;2023-05-12T07:59:29;100483.47;;;15.79;100.00
4586;BME280;2305;50.118;8.952;2023-05-12T08:01:59;100485.50;;;15.85;100.00
4586;BME280;2305;50.118;8.952;2023-05-12T08:04:27;100480.09;;;15.94;100.00
4586;BME280;2305;50.118;8.952;2023-05-12T08:06:57;100488.28;;;16.01;100.00
4586;BME280;2305;50.118;8.952;2023-05-12T08:09:26;100481.34;;;16.08;100.00
4586;BME280;2305;50.118;8.952;2023-05-12T08:11:54;100480.06;;;16.12;100.00
4586;BME280;2305;50.118;8.952;2023-05-12T08:14:24;100485.25;;;16.13;100.00
4586;BME280;2305;50.118;8.952;2023-05-12T08:16:52;100485.75;;;16.17;100.00
4586;BME280;2305;50.118;8.952;2023-05-12T08:19:21;100481.94;;;16.19;100.00
4586;BME280;2305;50.118;8.952;2023-05-12T08:21:49;100475.66;;;16.20;100.00
4586;BME280;2305;50.118;8.952;2023-05-12T08:24:21;100477.81;;;16.25;100.00
4586;BME280;2305;50.118;8.952;2023-05-12T08:26:49;100475.50;;;16.30;100.00
4586;BME280;2305;50.118;8.952;2023-05-12T08:29:19;100472.56;;;16.33;100.00
4586;BME280;2305;50.118;8.952;2023-05-12T08:31:47;100471.78;;;16.40;100.00
4586;BME280;2305;50.118;8.952;2023-05-12T08:34:17;100470.66;;;16.51;100.00
4586;BME280;2305;50.118;8.952;2023-05-12T08:36:48;100473.06;;;16.62;100.00
4586;BME280;2305;50.118;8.952;2023-05-12T08:39:17;100469.13;;;16.74;100.00
4586;BME280;2305;50.118;8.952;2023-05-12T08:41:51;100469.34;;;16.88;100.00
4586;BME280;2305;50.118;8.952;2023-05-12T08:44:22;100462.88;;;16.99;100.00
4586;BME280;2305;50.118;8.952;2023-05-12T08:46:55;100462.91;;;17.15;100.00
4586;BME280;2305;50.118;8.952;2023-05-12T08:49:28;100467.78;;;17.27;100.00
4586;BME280;2305;50.118;8.952;2023-05-12T08:52:04;100467.63;;;17.37;100.00
4586;BME280;2305;50.118;8.952;2023-05-12T08:54:32;100467.16;;;17.41;100.00
4586;BME280;2305;50.118;8.952;2023-05-12T08:57:22;100471.50;;;17.42;100.00
4586;BME280;2305;50.118;8.952;2023-05-12T08:59:56;100468.97;;;17.41;100.00
4586;BME280;2305;50.118;8.952;2023-05-12T09:02:26;100471.66;;;17.49;100.00
4586;BME280;2305;50.118;8.952;2023-05-12T09:05:14;100470.00;;;17.64;100.00
4586;BME280;2305;50.118;8.952;2023-05-12T09:07:45;100471.50;;;17.82;100.00
4586;BME280;2305;50.118;8.952;2023-05-12T09:10:16;100476.81;;;17.98;100.00
4586;BME280;2305;50.118;8.952;2023-05-12T09:13:06;100466.31;;;17.97;100.00
4586;BME280;2305;50.118;8.952;2023-05-12T09:15:41;100469.47;;;18.00;100.00
4586;BME280;2305;50.118;8.952;2023-05-12T09:18:11;100482.97;;;18.07;100.00
4586;BME280;2305;50.118;8.952;2023-05-12T09:20:39;100476.47;;;18.09;100.00
4586;BME280;2305;50.118;8.952;2023-05-12T09:23:15;100467.81;;;18.07;100.00
4586;BME280;2305;50.118;8.952;2023-05-12T09:25:44;100468.63;;;18.08;100.00
4586;BME280;2305;50.118;8.952;2023-05-12T09:28:14;100465.47;;;18.04;100.00
4586;BME280;2305;50.118;8.952;2023-05-12T09:30:42;100467.31;;;18.04;100.00
4586;BME280;2305;50.118;8.952;2023-05-12T09:33:11;100467.63;;;18.01;100.00
4586;BME280;2305;50.118;8.952;2023-05-12T09:35:41;100467.81;;;18.07;100.00
4586;BME280;2305;50.118;8.952;2023-05-12T09:38:11;100469.97;;;18.12;100.00
4586;BME280;2305;50.118;8.952;2023-05-12T09:40:41;100463.47;;;18.14;100.00
4586;BME280;2305;50.118;8.952;2023-05-12T09:43:10;100466.81;;;18.08;100.00
4586;BME280;2305;50.118;8.952;2023-05-12T09:45:44;100468.16;;;18.12;100.00
4586;BME280;2305;50.118;8.952;2023-05-12T09:48:18;100465.63;;;18.19;100.00
4586;BME280;2305;50.118;8.952;2023-05-12T09:50:48;100469.28;;;18.18;100.00
4586;BME280;2305;50.118;8.952;2023-05-12T09:53:21;100475.59;;;18.25;100.00
4586;BME280;2305;50.118;8.952;2023-05-12T09:55:49;100471.94;;;18.26;100.00
4586;BME280;2305;50.118;8.952;2023-05-12T09:58:20;100479.28;;;18.32;100.00
4586;BME280;2305;50.118;8.952;2023-05-12T10:00:51;100483.63;;;18.33;100.00
4586;BME280;2305;50.118;8.952;2023-05-12T10:03:25;100482.13;;;18.30;100.00
4586;BME280;2305;50.118;8.952;2023-05-12T10:05:59;100485.78;;;18.21;100.00
4586;BME280;2305;50.118;8.952;2023-05-12T10:08:33;100484.13;;;18.20;100.00
4586;BME280;2305;50.118;8.952;2023-05-12T10:11:07;100472.97;;;18.17;100.00
4586;BME280;2305;50.118;8.952;2023-05-12T10:13:37;100483.63;;;18.17;100.00
4586;BME280;2305;50.118;8.952;2023-05-12T10:16:06;100479.28;;;18.24;100.00
4586;BME280;2305;50.118;8.952;2023-05-12T10:18:37;100478.28;;;18.25;100.00
4586;BME280;2305;50.118;8.952;2023-05-12T10:21:07;100477.75;;;18.29;100.00
4586;BME280;2305;50.118;8.952;2023-05-12T10:23:40;100473.47;;;18.20;100.00
4586;BME280;2305;50.118;8.952;2023-05-12T10:26:09;100481.59;;;18.43;100.00
4586;BME280;2305;50.118;8.952;2023-05-12T10:28:38;100477.72;;;18.53;100.00
4586;BME280;2305;50.118;8.952;2023-05-12T10:31:09;100484.72;;;18.62;100.00
4586;BME280;2305;50.118;8.952;2023-05-12T10:33:41;100477.06;;;18.51;100.00
4586;BME280;2305;50.118;8.952;2023-05-12T10:36:16;100482.06;;;18.46;100.00
4586;BME280;2305;50.118;8.952;2023-05-12T10:38:46;100482.41;;;18.51;100.00
4586;BME280;2305;50.118;8.952;2023-05-12T10:41:28;100484.22;;;18.59;100.00
4586;BME280;2305;50.118;8.952;2023-05-12T10:43:57;100484.91;;;18.53;100.00
4586;BME280;2305;50.118;8.952;2023-05-12T10:46:32;100475.69;;;18.63;100.00
4586;BME280;2305;50.118;8.952;2023-05-12T10:49:02;100480.47;;;18.76;100.00
4586;BME280;2305;50.118;8.952;2023-05-12T10:51:33;100478.09;;;18.88;100.00
4586;BME280;2305;50.118;8.952;2023-05-12T10:54:03;100477.34;;;19.02;100.00
4586;BME280;2305;50.118;8.952;2023-05-12T10:56:40;100473.78;;;19.10;100.00
4586;BME280;2305;50.118;8.952;2023-05-12T10:59:12;100474.28;;;19.13;100.00
4586;BME280;2305;50.118;8.952;2023-05-12T11:01:57;100478.72;;;19.29;100.00
4586;BME280;2305;50.118;8.952;2023-05-12T11:04:36;100490.44;;;19.28;100.00
4586;BME280;2305;50.118;8.952;2023-05-12T11:07:07;100485.13;;;19.42;100.00
4586;BME280;2305;50.118;8.952;2023-05-12T11:09:42;100482.53;;;19.34;100.00
4586;BME280;2305;50.118;8.952;2023-05-12T11:12:24;100492.63;;;19.24;100.00
4586;BME280;2305;50.118;8.952;2023-05-12T11:14:53;100494.81;;;19.21;100.00
4586;BME280;2305;50.118;8.952;2023-05-12T11:17:23;100489.81;;;19.10;100.00
4586;BME280;2305;50.118;8.952;2023-05-12T11:19:51;100487.66;;;19.05;100.00
4586;BME280;2305;50.118;8.952;2023-05-12T11:22:22;100488.53;;;19.06;100.00
4586;BME280;2305;50.118;8.952;2023-05-12T11:24:50;100500.88;;;19.07;100.00
4586;BME280;2305;50.118;8.952;2023-05-12T11:27:20;100486.75;;;18.90;100.00
4586;BME280;2305;50.118;8.952;2023-05-12T11:29:57;100492.41;;;18.95;100.00
4586;BME280;2305;50.118;8.952;2023-05-12T11:32:32;100490.44;;;18.89;100.00
4586;BME280;2305;50.118;8.952;2023-05-12T11:35:11;100500.75;;;18.92;100.00
4586;BME280;2305;50.118;8.952;2023-05-12T11:37:43;100492.44;;;18.88;100.00
4586;BME280;2305;50.118;8.952;2023-05-12T11:40:15;100497.47;;;18.83;100.00
4586;BME280;2305;50.118;8.952;2023-05-12T11:42:45;100497.19;;;18.70;100.00
4586;BME280;2305;50.118;8.952;2023-05-12T11:45:23;100498.88;;;18.63;100.00
4586;BME280;2305;50.118;8.952;2023-05-12T11:48:07;100505.06;;;18.63;100.00
4586;BME280;2305;50.118;8.952;2023-05-12T11:50:43;100499.03;;;18.69;100.00
4586;BME280;2305;50.118;8.952;2023-05-12T11:53:14;100498.81;;;18.78;100.00
4586;BME280;2305;50.118;8.952;2023-05-12T11:55:49;100500.13;;;18.83;100.00
4586;BME280;2305;50.118;8.952;2023-05-12T11:58:18;100497.34;;;18.76;100.00
4586;BME280;2305;50.118;8.952;2023-05-12T12:00:53;100501.84;;;18.76;100.00
4586;BME280;2305;50.118;8.952;2023-05-12T12:03:25;100496.78;;;18.88;100.00
4586;BME280;2305;50.118;8.952;2023-05-12T12:05:58;100495.63;;;19.13;100.00
4586;BME280;2305;50.118;8.952;2023-05-12T12:08:29;100509.13;;;19.28;100.00
4586;BME280;2305;50.118;8.952;2023-05-12T12:11:00;100499.72;;;19.32;100.00
4586;BME280;2305;50.118;8.952;2023-05-12T12:13:33;100501.06;;;19.36;100.00
4586;BME280;2305;50.118;8.952;2023-05-12T12:16:02;100504.22;;;19.39;100.00
4586;BME280;2305;50.118;8.952;2023-05-12T12:18:32;100497.31;;;19.45;100.00
4586;BME280;2305;50.118;8.952;2023-05-12T12:21:00;100494.41;;;19.54;100.00
4586;BME280;2305;50.118;8.952;2023-05-12T12:23:31;100501.19;;;19.65;100.00
4586;BME280;2305;50.118;8.952;2023-05-12T12:26:20;100506.94;;;19.76;100.00
4586;BME280;2305;50.118;8.952;2023-05-12T12:28:50;100496.38;;;19.83;100.00
4586;BME280;2305;50.118;8.952;2023-05-12T12:31:18;100492.69;;;19.84;100.00
4586;BME280;2305;50.118;8.952;2023-05-12T12:33:48;100492.38;;;19.79;100.00
4586;BME280;2305;50.118;8.952;2023-05-12T12:36:16;100506.66;;;19.71;100.00
4586;BME280;2305;50.118;8.952;2023-05-12T12:38:44;100515.09;;;19.60;100.00
4586;BME280;2305;50.118;8.952;2023-05-12T12:41:13;100508.19;;;19.66;100.00
4586;BME280;2305;50.118;8.952;2023-05-12T12:43:42;100502.69;;;19.67;100.00
4586;BME280;2305;50.118;8.952;2023-05-12T12:46:10;100499.34;;;19.65;100.00
4586;BME280;2305;50.118;8.952;2023-05-12T12:48:38;100500.84;;;19.68;100.00
4586;BME280;2305;50.118;8.952;2023-05-12T12:51:11;100504.50;;;19.67;100.00
4586;BME280;2305;50.118;8.952;2023-05-12T12:53:41;100499.44;;;19.57;100.00
4586;BME280;2305;50.118;8.952;2023-05-12T12:56:11;100503.75;;;19.58;100.00
4586;BME280;2305;50.118;8.952;2023-05-12T12:58:39;100499.44;;;19.57;100.00
4586;BME280;2305;50.118;8.952;2023-05-12T13:01:07;100499.22;;;19.59;100.00
4586;BME280;2305;50.118;8.952;2023-05-12T13:03:38;100488.47;;;19.67;100.00
4586;BME280;2305;50.118;8.952;2023-05-12T13:06:06;100486.41;;;19.77;100.00
4586;BME280;2305;50.118;8.952;2023-05-12T13:08:37;100498.69;;;19.86;100.00
4586;BME280;2305;50.118;8.952;2023-05-12T13:11:06;100494.91;;;19.80;100.00
4586;BME280;2305;50.118;8.952;2023-05-12T13:13:35;100490.34;;;19.81;100.00
4586;BME280;2305;50.118;8.952;2023-05-12T13:16:06;100493.09;;;19.95;100.00
4586;BME280;2305;50.118;8.952;2023-05-12T13:18:34;100497.59;;;20.17;100.00
4586;BME280;2305;50.118;8.952;2023-05-12T13:21:03;100498.72;;;20.37;100.00